Time;durP1;ratioP1;P1;durP2;ratioP2;P2;SDS_P1;SDS_P2;PMS_P1;PMS_P2;Temp;Humidity;BMP_temperature;BMP_pressure;BME280_temperature;BME280_humidity;BME280_pressure;Samples;Min_cycle;Max_cycle;Signal;HPM_P1;HPM_P2
2022/10/16 00:01:00;;;;;;;1.60;1.20;;;;;;;;;;5095479;28;20184;-83
2022/10/16 00:03:28;;;;;;;3.97;1.60;;;;;;;;;;5094403;28;20309;-83
2022/10/16 00:06:00;;;;;;;2.30;1.30;;;;;;;;;;5094251;28;20201;-83
2022/10/16 00:08:28;;;;;;;3.70;1.53;;;;;;;;;;5094601;28;20212;-83
2022/10/16 00:11:02;;;;;;;2.10;1.03;;;;;;;;;;5095067;28;20202;-83
2022/10/16 00:13:31;;;;;;;3.97;1.90;;;;;;;;;;5095443;28;20252;-83
2022/10/16 00:16:00;;;;;;;0.70;0.70;;;;;;;;;;5094649;28;20197;-83
2022/10/16 00:18:28;;;;;;;2.67;1.60;;;;;;;;;;5094291;28;20197;-83
2022/10/16 00:20:57;;;;;;;4.90;1.40;;;;;;;;;;5093350;28;20218;-82
2022/10/16 00:23:28;;;;;;;5.17;1.93;;;;;;;;;;5094391;28;20263;-83
2022/10/16 00:25:57;;;;;;;2.13;1.50;;;;;;;;;;5094214;28;20194;-83
2022/10/16 00:28:27;;;;;;;2.03;1.43;;;;;;;;;;5093727;28;20208;-83
2022/10/16 00:30:55;;;;;;;2.37;1.60;;;;;;;;;;5093729;28;20311;-83
2022/10/16 00:33:25;;;;;;;4.33;1.70;;;;;;;;;;5094828;28;20206;-83
2022/10/16 00:35:54;;;;;;;5.67;1.50;;;;;;;;;;5084966;28;20206;-83
2022/10/16 00:38:22;;;;;;;6.70;2.03;;;;;;;;;;5089816;28;20268;-83
2022/10/16 00:40:50;;;;;;;3.73;1.70;;;;;;;;;;5093748;28;20321;-83
2022/10/16 00:46:15;;;;;;;2.40;1.60;;;;;;;;;;5135180;27;141459;-81
2022/10/16 00:48:46;;;;;;;2.07;1.70;;;;;;;;;;5134323;27;20203;-82
2022/10/16 00:51:15;;;;;;;2.80;1.57;;;;;;;;;;5150041;27;20196;-82
2022/10/16 00:53:43;;;;;;;2.13;1.40;;;;;;;;;;5123153;27;20199;-82
2022/10/16 00:56:12;;;;;;;3.53;1.33;;;;;;;;;;5152239;27;20195;-82
2022/10/16 00:58:41;;;;;;;3.63;1.50;;;;;;;;;;5133620;27;20199;-82
2022/10/16 01:01:09;;;;;;;2.63;1.43;;;;;;;;;;5117803;27;20188;-82
2022/10/16 01:03:39;;;;;;;1.93;1.67;;;;;;;;;;5113105;28;20273;-82
2022/10/16 01:06:14;;;;;;;5.10;1.83;;;;;;;;;;5131697;27;20270;-82
2022/10/16 01:08:46;;;;;;;2.77;1.87;;;;;;;;;;5133713;27;20194;-82
2022/10/16 01:11:18;;;;;;;2.73;1.60;;;;;;;;;;5132932;27;20202;-82
2022/10/16 01:13:50;;;;;;;4.53;2.50;;;;;;;;;;5131538;27;20197;-82
2022/10/16 01:16:23;;;;;;;2.50;1.60;;;;;;;;;;5133617;27;20223;-82
2022/10/16 01:18:56;;;;;;;2.83;1.77;;;;;;;;;;5119174;27;20218;-82
2022/10/16 01:21:26;;;;;;;5.20;1.83;;;;;;;;;;5107143;28;20280;-82
2022/10/16 01:23:59;;;;;;;3.00;1.50;;;;;;;;;;5127313;28;20228;-83
2022/10/16 01:26:39;;;;;;;2.13;1.70;;;;;;;;;;5092859;28;20298;-83
2022/10/16 01:29:10;;;;;;;2.37;1.13;;;;;;;;;;5112333;28;20206;-83
2022/10/16 01:31:40;;;;;;;1.50;0.90;;;;;;;;;;5099607;28;20279;-82
2022/10/16 01:34:11;;;;;;;1.00;0.90;;;;;;;;;;5116184;27;20200;-83
2022/10/16 01:36:41;;;;;;;4.70;1.60;;;;;;;;;;5100216;28;20196;-83
2022/10/16 01:39:11;;;;;;;2.77;1.63;;;;;;;;;;5103299;28;20189;-83
2022/10/16 01:41:41;;;;;;;4.80;2.20;;;;;;;;;;5114365;28;20203;-82
2022/10/16 01:44:12;;;;;;;2.33;1.83;;;;;;;;;;5098594;28;20249;-83
2022/10/16 01:46:42;;;;;;;4.20;1.90;;;;;;;;;;5102489;28;20212;-83
2022/10/16 01:49:11;;;;;;;4.43;1.70;;;;;;;;;;5096431;28;20210;-83
2022/10/16 01:51:39;;;;;;;4.67;1.50;;;;;;;;;;5112743;28;20192;-83
2022/10/16 01:54:09;;;;;;;3.07;1.23;;;;;;;;;;5112104;28;20205;-83
2022/10/16 01:56:38;;;;;;;2.13;1.37;;;;;;;;;;5122178;28;20193;-83
2022/10/16 01:59:08;;;;;;;0.80;0.80;;;;;;;;;;5085256;28;20197;-83
2022/10/16 02:01:39;;;;;;;4.87;1.53;;;;;;;;;;5098748;28;20197;-83
2022/10/16 02:04:10;;;;;;;0.70;0.70;;;;;;;;;;5116491;28;20217;-83
2022/10/16 02:06:39;;;;;;;2.90;1.30;;;;;;;;;;5098668;28;20307;-83
2022/10/16 02:09:07;;;;;;;3.10;1.30;;;;;;;;;;5099494;28;20215;-83
2022/10/16 02:11:35;;;;;;;3.13;2.00;;;;;;;;;;5082452;28;20188;-83
2022/10/16 02:14:05;;;;;;;2.60;1.50;;;;;;;;;;5116420;28;20227;-83
2022/10/16 02:16:34;;;;;;;1.30;1.13;;;;;;;;;;5079292;28;20220;-82
2022/10/16 02:19:05;;;;;;;2.07;1.43;;;;;;;;;;5096385;28;20259;-83
2022/10/16 02:21:38;;;;;;;1.33;1.17;;;;;;;;;;5078037;28;20248;-82
2022/10/16 02:24:09;;;;;;;2.13;1.23;;;;;;;;;;5091683;28;20189;-82
2022/10/16 02:26:42;;;;;;;2.37;1.47;;;;;;;;;;5116084;28;20214;-83
2022/10/16 02:29:13;;;;;;;1.70;1.50;;;;;;;;;;5084629;28;20199;-83
2022/10/16 02:31:45;;;;;;;3.80;1.67;;;;;;;;;;5115744;28;20212;-83
2022/10/16 02:34:15;;;;;;;2.33;1.30;;;;;;;;;;5080701;28;20228;-83
2022/10/16 02:36:44;;;;;;;2.33;1.27;;;;;;;;;;5088847;28;20196;-82
2022/10/16 02:39:12;;;;;;;3.03;1.37;;;;;;;;;;5084487;28;20227;-82
2022/10/16 02:41:41;;;;;;;4.57;2.07;;;;;;;;;;5116040;28;20228;-83
2022/10/16 02:44:09;;;;;;;2.67;1.40;;;;;;;;;;5097243;28;20226;-83
2022/10/16 02:46:38;;;;;;;4.10;1.63;;;;;;;;;;5097999;28;20220;-83
2022/10/16 02:49:06;;;;;;;4.00;1.73;;;;;;;;;;5097247;28;20257;-83
2022/10/16 02:51:36;;;;;;;5.37;1.47;;;;;;;;;;5115581;28;20208;-82
2022/10/16 02:54:05;;;;;;;4.97;2.63;;;;;;;;;;5090550;28;20205;-82
2022/10/16 02:56:36;;;;;;;4.70;1.67;;;;;;;;;;5090995;28;20271;-83
2022/10/16 02:59:04;;;;;;;5.07;1.50;;;;;;;;;;5102988;28;20279;-83
2022/10/16 03:01:33;;;;;;;2.10;1.47;;;;;;;;;;5101515;28;20205;-83
2022/10/16 03:04:01;;;;;;;4.00;1.60;;;;;;;;;;5097662;28;20206;-82
2022/10/16 03:06:30;;;;;;;4.73;2.00;;;;;;;;;;5113334;28;20221;-83
2022/10/16 03:08:59;;;;;;;1.93;1.33;;;;;;;;;;5076463;28;20201;-83
2022/10/16 03:11:28;;;;;;;2.40;1.23;;;;;;;;;;5078665;28;20204;-83
2022/10/16 03:13:56;;;;;;;4.03;1.73;;;;;;;;;;5077790;28;20205;-83
2022/10/16 03:16:24;;;;;;;4.23;2.03;;;;;;;;;;5094310;28;20208;-83
2022/10/16 03:18:53;;;;;;;4.63;1.50;;;;;;;;;;5086419;28;20235;-83
2022/10/16 03:21:21;;;;;;;2.97;1.67;;;;;;;;;;5112842;28;20308;-82
2022/10/16 03:23:49;;;;;;;3.50;1.60;;;;;;;;;;5085273;28;20201;-83
2022/10/16 03:26:19;;;;;;;1.13;1.00;;;;;;;;;;5100581;28;20232;-83
2022/10/16 03:28:47;;;;;;;8.13;4.73;;;;;;;;;;5084914;28;20242;-83
2022/10/16 03:31:16;;;;;;;5.20;1.40;;;;;;;;;;5108001;28;20197;-83
2022/10/16 03:33:44;;;;;;;2.20;1.23;;;;;;;;;;5089279;28;20231;-83
2022/10/16 03:36:13;;;;;;;3.60;1.10;;;;;;;;;;5095454;28;20285;-83
2022/10/16 03:38:41;;;;;;;6.00;1.47;;;;;;;;;;5090012;28;20196;-83
2022/10/16 03:41:09;;;;;;;2.47;1.27;;;;;;;;;;5101534;28;20257;-83
2022/10/16 03:43:39;;;;;;;3.20;1.70;;;;;;;;;;5083804;28;20223;-83
2022/10/16 03:46:07;;;;;;;4.20;2.50;;;;;;;;;;5088436;28;20229;-83
2022/10/16 03:48:36;;;;;;;4.93;2.10;;;;;;;;;;5090905;28;20196;-83
2022/10/16 03:51:04;;;;;;;1.50;1.40;;;;;;;;;;5096382;28;20200;-83
2022/10/16 03:53:33;;;;;;;5.93;3.43;;;;;;;;;;5099259;28;20227;-83
2022/10/16 03:56:01;;;;;;;5.37;2.30;;;;;;;;;;5085868;28;20189;-83
2022/10/16 03:58:29;;;;;;;5.20;2.50;;;;;;;;;;5083505;28;20235;-83
2022/10/16 04:00:59;;;;;;;3.43;1.83;;;;;;;;;;5096444;28;20253;-82
2022/10/16 04:03:27;;;;;;;6.50;2.47;;;;;;;;;;5092411;28;20201;-82
2022/10/16 04:05:56;;;;;;;3.87;2.20;;;;;;;;;;5076895;28;20217;-83
2022/10/16 04:08:24;;;;;;;4.13;2.50;;;;;;;;;;5090400;28;20256;-83
2022/10/16 04:10:53;;;;;;;4.10;2.03;;;;;;;;;;5087723;28;20216;-83
2022/10/16 04:13:21;;;;;;;4.70;2.20;;;;;;;;;;5095428;28;20287;-82
2022/10/16 04:15:49;;;;;;;1.63;1.13;;;;;;;;;;5096031;28;20346;-83
2022/10/16 04:18:19;;;;;;;7.70;3.83;;;;;;;;;;5090383;28;20208;-83
2022/10/16 04:20:47;;;;;;;1.67;1.57;;;;;;;;;;5076345;28;20220;-83
2022/10/16 04:23:16;;;;;;;6.37;2.10;;;;;;;;;;5112078;28;20259;-83
2022/10/16 04:25:44;;;;;;;1.30;1.20;;;;;;;;;;5082242;28;20279;-83
2022/10/16 04:28:13;;;;;;;9.20;2.03;;;;;;;;;;5083444;28;20221;-83
2022/10/16 04:30:41;;;;;;;7.17;2.47;;;;;;;;;;5095393;28;20204;-83
2022/10/16 04:33:10;;;;;;;1.93;0.93;;;;;;;;;;5095637;28;20345;-83
2022/10/16 04:35:40;;;;;;;2.30;2.20;;;;;;;;;;5095782;28;20205;-83
2022/10/16 04:38:08;;;;;;;0.73;0.73;;;;;;;;;;5086930;28;20210;-83
2022/10/16 04:40:37;;;;;;;0.53;0.53;;;;;;;;;;5078336;28;20266;-83
2022/10/16 04:43:05;;;;;;;6.33;1.53;;;;;;;;;;5095440;28;20208;-83
2022/10/16 04:45:34;;;;;;;9.53;2.30;;;;;;;;;;5082236;28;20327;-83
2022/10/16 04:48:04;;;;;;;4.27;1.33;;;;;;;;;;5095537;28;20209;-83
2022/10/16 04:50:33;;;;;;;9.40;1.70;;;;;;;;;;5095567;28;20283;-83
2022/10/16 04:53:02;;;;;;;5.80;1.40;;;;;;;;;;5084502;28;20257;-83
2022/10/16 04:55:31;;;;;;;2.00;1.20;;;;;;;;;;5080745;28;20283;-83
2022/10/16 04:57:59;;;;;;;6.60;1.93;;;;;;;;;;5095893;28;20281;-83
2022/10/16 05:00:28;;;;;;;9.67;2.17;;;;;;;;;;5095595;28;20241;-83
2022/10/16 05:02:56;;;;;;;7.33;3.23;;;;;;;;;;5113544;28;20196;-83
2022/10/16 05:05:25;;;;;;;11.60;2.83;;;;;;;;;;5095150;28;20201;-83
2022/10/16 05:07:53;;;;;;;7.87;3.07;;;;;;;;;;5095606;28;20217;-83
2022/10/16 05:10:23;;;;;;;4.40;1.30;;;;;;;;;;5082764;28;20204;-83
2022/10/16 05:12:52;;;;;;;4.40;1.83;;;;;;;;;;5095810;28;20205;-83
2022/10/16 05:15:20;;;;;;;9.97;3.43;;;;;;;;;;5095642;28;20207;-83
2022/10/16 05:17:48;;;;;;;5.77;2.07;;;;;;;;;;5095078;28;20193;-83
2022/10/16 05:20:17;;;;;;;5.27;2.13;;;;;;;;;;5113330;28;20243;-83
2022/10/16 05:22:45;;;;;;;6.50;1.80;;;;;;;;;;5095283;28;20223;-83
2022/10/16 05:25:13;;;;;;;8.50;2.93;;;;;;;;;;5095435;28;20287;-83
2022/10/16 05:27:43;;;;;;;5.77;3.20;;;;;;;;;;5082268;28;20209;-83
2022/10/16 05:30:12;;;;;;;6.40;1.53;;;;;;;;;;5094787;28;20231;-83
2022/10/16 05:32:40;;;;;;;3.47;1.90;;;;;;;;;;5116596;28;20200;-83
2022/10/16 05:35:09;;;;;;;5.97;2.43;;;;;;;;;;5098800;28;20194;-83
2022/10/16 05:37:40;;;;;;;4.80;1.93;;;;;;;;;;5079925;28;20239;-82
2022/10/16 05:40:09;;;;;;;7.07;1.73;;;;;;;;;;5091269;28;20192;-83
2022/10/16 05:42:38;;;;;;;7.33;2.00;;;;;;;;;;5085545;28;20192;-82
2022/10/16 05:45:09;;;;;;;5.60;1.77;;;;;;;;;;5082792;28;20259;-82
2022/10/16 05:47:38;;;;;;;4.97;2.90;;;;;;;;;;5096660;28;20217;-82
2022/10/16 05:50:06;;;;;;;6.57;2.47;;;;;;;;;;5082124;28;20316;-83
2022/10/16 05:52:35;;;;;;;6.37;2.57;;;;;;;;;;5088258;28;20194;-83
2022/10/16 05:55:03;;;;;;;5.30;2.67;;;;;;;;;;5089063;28;20197;-82
2022/10/16 05:57:31;;;;;;;5.83;2.80;;;;;;;;;;5075887;28;20244;-82
2022/10/16 06:00:00;;;;;;;5.07;2.70;;;;;;;;;;5074931;28;20202;-84
2022/10/16 06:02:29;;;;;;;3.23;2.27;;;;;;;;;;5085426;28;20209;-85
2022/10/16 06:04:58;;;;;;;3.13;2.27;;;;;;;;;;5095513;28;20224;-85
2022/10/16 06:07:26;;;;;;;3.60;1.87;;;;;;;;;;5095029;28;20205;-85
2022/10/16 06:09:55;;;;;;;7.23;2.77;;;;;;;;;;5078537;28;20290;-84
2022/10/16 06:12:23;;;;;;;4.03;2.90;;;;;;;;;;5076478;28;20225;-84
2022/10/16 06:14:52;;;;;;;3.53;2.07;;;;;;;;;;5080129;28;20201;-85
2022/10/16 06:17:20;;;;;;;6.43;2.43;;;;;;;;;;5085147;28;20198;-84
2022/10/16 06:19:50;;;;;;;3.70;1.20;;;;;;;;;;5079719;28;20193;-84
2022/10/16 06:22:18;;;;;;;3.63;1.80;;;;;;;;;;5094629;28;20201;-84
2022/10/16 06:24:47;;;;;;;2.87;1.63;;;;;;;;;;5081103;28;20201;-84
2022/10/16 06:27:15;;;;;;;4.90;2.00;;;;;;;;;;5094656;28;20209;-84
2022/10/16 06:29:44;;;;;;;3.80;2.07;;;;;;;;;;5094890;28;20201;-84
2022/10/16 06:32:13;;;;;;;3.53;1.80;;;;;;;;;;5095111;28;20242;-85
2022/10/16 06:34:41;;;;;;;5.17;2.67;;;;;;;;;;5087312;28;20438;-84
2022/10/16 06:37:12;;;;;;;4.17;2.33;;;;;;;;;;5075831;28;20204;-84
2022/10/16 06:39:41;;;;;;;1.37;1.27;;;;;;;;;;5094965;28;20209;-84
2022/10/16 06:42:09;;;;;;;1.20;1.20;;;;;;;;;;5080742;28;20245;-84
2022/10/16 06:44:37;;;;;;;6.07;2.20;;;;;;;;;;5094255;28;20233;-85
2022/10/16 06:47:06;;;;;;;3.60;2.13;;;;;;;;;;5091835;28;20236;-84
2022/10/16 06:49:35;;;;;;;2.63;2.07;;;;;;;;;;5084331;28;20223;-85
2022/10/16 06:52:03;;;;;;;7.33;2.97;;;;;;;;;;5077572;28;20225;-85
2022/10/16 06:54:33;;;;;;;3.17;1.63;;;;;;;;;;5084923;28;20228;-85
2022/10/16 06:57:09;;;;;;;5.17;2.30;;;;;;;;;;5080364;28;20212;-84
2022/10/16 06:59:37;;;;;;;6.77;2.70;;;;;;;;;;5082830;28;20201;-85
2022/10/16 07:02:06;;;;;;;2.97;1.97;;;;;;;;;;5074240;28;20304;-85
2022/10/16 07:04:35;;;;;;;3.70;2.50;;;;;;;;;;5087487;28;20246;-85
2022/10/16 07:07:03;;;;;;;5.00;2.93;;;;;;;;;;5093575;28;20236;-84
2022/10/16 07:09:37;;;;;;;8.00;3.00;;;;;;;;;;5082076;28;20201;-84
2022/10/16 07:12:06;;;;;;;10.63;3.03;;;;;;;;;;5093518;28;20201;-84
2022/10/16 07:14:34;;;;;;;8.40;2.47;;;;;;;;;;5081129;28;20202;-84
2022/10/16 07:17:02;;;;;;;7.30;2.47;;;;;;;;;;5094166;28;20299;-84
2022/10/16 07:19:31;;;;;;;9.73;3.10;;;;;;;;;;5081854;28;20201;-85
2022/10/16 07:22:02;;;;;;;5.27;1.83;;;;;;;;;;5093616;28;20218;-85
2022/10/16 07:24:31;;;;;;;5.77;2.27;;;;;;;;;;5092596;28;20203;-85
2022/10/16 07:27:00;;;;;;;7.93;3.30;;;;;;;;;;5093653;28;20201;-85
2022/10/16 07:29:29;;;;;;;9.43;3.50;;;;;;;;;;5087839;28;20246;-84
2022/10/16 07:31:57;;;;;;;6.90;1.83;;;;;;;;;;5086648;28;20221;-85
2022/10/16 07:34:26;;;;;;;9.27;3.43;;;;;;;;;;5080836;28;20205;-85
2022/10/16 07:36:54;;;;;;;8.03;2.20;;;;;;;;;;5092962;28;20292;-84
2022/10/16 07:39:23;;;;;;;11.97;2.53;;;;;;;;;;5109495;28;20201;-85
2022/10/16 07:41:51;;;;;;;8.37;3.23;;;;;;;;;;5080018;28;20216;-84
2022/10/16 07:44:21;;;;;;;1.00;0.97;;;;;;;;;;5076881;28;20203;-84
2022/10/16 07:46:49;;;;;;;7.83;2.93;;;;;;;;;;5090044;28;20209;-84
2022/10/16 07:49:17;;;;;;;7.67;2.70;;;;;;;;;;5101877;28;20217;-85
2022/10/16 07:51:46;;;;;;;5.20;2.27;;;;;;;;;;5083124;28;20218;-85
2022/10/16 07:54:14;;;;;;;3.87;1.80;;;;;;;;;;5096277;28;20205;-85
2022/10/16 07:56:42;;;;;;;3.53;1.43;;;;;;;;;;5083122;28;20270;-85
2022/10/16 07:59:11;;;;;;;5.17;2.20;;;;;;;;;;5096516;28;20203;-85
2022/10/16 08:01:42;;;;;;;8.57;2.57;;;;;;;;;;5094167;28;20225;-85
2022/10/16 08:04:11;;;;;;;5.37;1.97;;;;;;;;;;5103662;28;20216;-85
2022/10/16 08:06:40;;;;;;;4.63;2.50;;;;;;;;;;5095976;28;20260;-85
2022/10/16 08:09:09;;;;;;;2.90;2.37;;;;;;;;;;5096233;28;20248;-85
2022/10/16 08:11:38;;;;;;;2.60;1.77;;;;;;;;;;5095707;28;20225;-84
2022/10/16 08:14:06;;;;;;;7.77;2.50;;;;;;;;;;5096114;28;20289;-85
2022/10/16 08:16:34;;;;;;;6.10;3.03;;;;;;;;;;5083102;28;20206;-85
2022/10/16 08:19:04;;;;;;;3.60;1.20;;;;;;;;;;5102722;28;20191;-85
2022/10/16 08:21:32;;;;;;;3.13;1.93;;;;;;;;;;5078130;28;20219;-85
2022/10/16 08:24:01;;;;;;;8.33;2.37;;;;;;;;;;5077026;28;20226;-85
2022/10/16 08:26:29;;;;;;;3.77;1.57;;;;;;;;;;5111995;28;20203;-85
2022/10/16 08:28:57;;;;;;;10.40;4.93;;;;;;;;;;5095027;28;20239;-85
2022/10/16 08:31:27;;;;;;;3.90;1.13;;;;;;;;;;5089287;28;20250;-85
2022/10/16 08:33:55;;;;;;;3.80;2.93;;;;;;;;;;5090001;28;20267;-85
2022/10/16 08:36:25;;;;;;;7.37;2.07;;;;;;;;;;5088565;28;20227;-85
2022/10/16 08:38:54;;;;;;;3.63;0.97;;;;;;;;;;5077664;28;20251;-85
2022/10/16 08:41:26;;;;;;;6.33;1.53;;;;;;;;;;5076486;28;20282;-85
2022/10/16 08:44:07;;;;;;;6.53;2.70;;;;;;;;;;5077773;28;20210;-87
2022/10/16 08:47:05;;;;;;;9.13;2.57;;;;;;;;;;5087623;28;20203;-86
2022/10/16 08:49:34;;;;;;;3.43;2.10;;;;;;;;;;5085068;28;20305;-86
2022/10/16 08:52:03;;;;;;;11.00;2.57;;;;;;;;;;5110837;28;20282;-86
2022/10/16 08:54:36;;;;;;;6.33;2.03;;;;;;;;;;5086039;28;20211;-86
2022/10/16 08:57:10;;;;;;;7.20;2.17;;;;;;;;;;5095736;28;20206;-86
2022/10/16 08:59:39;;;;;;;1.97;0.77;;;;;;;;;;5096555;28;20208;-86
2022/10/16 09:02:21;;;;;;;4.00;2.10;;;;;;;;;;5089324;28;20199;-86
2022/10/16 09:04:53;;;;;;;5.40;2.27;;;;;;;;;;5109016;28;20203;-87
2022/10/16 09:07:30;;;;;;;3.43;1.17;;;;;;;;;;5089180;28;20208;-87
2022/10/16 09:10:13;;;;;;;7.90;3.43;;;;;;;;;;5097502;28;20211;-86
2022/10/16 09:12:45;;;;;;;8.40;2.83;;;;;;;;;;5087394;28;20200;-88
2022/10/16 09:15:18;;;;;;;11.87;2.60;;;;;;;;;;5087172;28;20206;-87
2022/10/16 09:17:52;;;;;;;8.03;2.13;;;;;;;;;;5099455;28;20211;-86
2022/10/16 09:20:33;;;;;;;17.47;2.57;;;;;;;;;;5117825;28;20247;-86
2022/10/16 09:23:19;;;;;;;5.13;1.87;;;;;;;;;;5113300;28;20206;-86
2022/10/16 09:25:49;;;;;;;1.20;0.90;;;;;;;;;;5110787;28;20226;-85
2022/10/16 09:28:17;;;;;;;14.23;2.87;;;;;;;;;;5087313;28;20314;-86
2022/10/16 09:30:48;;;;;;;9.33;2.60;;;;;;;;;;5099535;28;20294;-85
2022/10/16 09:33:17;;;;;;;6.03;1.60;;;;;;;;;;5091035;28;20218;-84
2022/10/16 09:35:46;;;;;;;4.40;1.57;;;;;;;;;;5081714;28;20239;-84
2022/10/16 09:38:26;;;;;;;5.97;2.27;;;;;;;;;;5107834;28;20272;-84
2022/10/16 09:40:54;;;;;;;11.23;2.73;;;;;;;;;;5110769;28;20229;-84
2022/10/16 09:43:33;;;;;;;5.67;2.17;;;;;;;;;;5080185;28;20290;-84
2022/10/16 09:46:01;;;;;;;3.40;1.80;;;;;;;;;;5097082;28;20307;-84
2022/10/16 09:48:33;;;;;;;7.63;2.57;;;;;;;;;;5079608;28;20208;-84
2022/10/16 09:51:02;;;;;;;6.63;1.97;;;;;;;;;;5079353;28;20270;-84
2022/10/16 09:53:42;;;;;;;5.70;2.40;;;;;;;;;;5081116;28;20295;-85
2022/10/16 09:56:13;;;;;;;5.33;1.97;;;;;;;;;;5098958;28;20212;-84
2022/10/16 09:58:45;;;;;;;4.43;2.50;;;;;;;;;;5085101;28;20200;-84
2022/10/16 10:01:15;;;;;;;7.03;1.70;;;;;;;;;;5116389;28;20207;-84
2022/10/16 10:03:44;;;;;;;6.90;2.00;;;;;;;;;;5097596;28;20198;-84
2022/10/16 10:06:18;;;;;;;4.30;2.07;;;;;;;;;;5086714;28;20214;-84
2022/10/16 10:08:59;;;;;;;3.83;2.60;;;;;;;;;;5079906;28;20257;-84
2022/10/16 10:11:44;;;;;;;5.87;1.97;;;;;;;;;;5082643;28;20218;-84
2022/10/16 10:14:19;;;;;;;11.27;3.27;;;;;;;;;;5087460;28;20204;-84
2022/10/16 10:16:47;;;;;;;3.37;1.57;;;;;;;;;;5115716;28;20216;-85
2022/10/16 10:19:16;;;;;;;5.13;1.67;;;;;;;;;;5116839;28;20200;-84
2022/10/16 10:21:45;;;;;;;6.07;2.50;;;;;;;;;;5103327;28;20253;-83
2022/10/16 10:24:15;;;;;;;6.27;1.77;;;;;;;;;;5097607;28;20222;-85
2022/10/16 10:26:46;;;;;;;6.70;3.43;;;;;;;;;;5097344;28;20188;-85
2022/10/16 10:29:19;;;;;;;7.40;2.10;;;;;;;;;;5097753;28;20256;-85
2022/10/16 10:31:50;;;;;;;5.60;2.43;;;;;;;;;;5106980;28;20199;-85
2022/10/16 10:34:37;;;;;;;7.03;2.33;;;;;;;;;;5100987;28;20210;-85
2022/10/16 10:37:07;;;;;;;4.03;1.73;;;;;;;;;;5097362;28;20304;-85
2022/10/16 10:39:41;;;;;;;4.20;1.93;;;;;;;;;;5078840;28;20285;-85
2022/10/16 10:42:20;;;;;;;3.20;1.63;;;;;;;;;;5097142;28;20235;-84
2022/10/16 10:45:13;;;;;;;4.37;3.70;;;;;;;;;;5088312;28;20240;-85
2022/10/16 10:47:45;;;;;;;3.40;1.03;;;;;;;;;;5095677;28;20188;-84
2022/10/16 10:50:18;;;;;;;2.07;1.17;;;;;;;;;;5110259;28;20310;-85
2022/10/16 10:52:54;;;;;;;7.67;1.83;;;;;;;;;;5109100;28;20201;-85
2022/10/16 10:55:30;;;;;;;7.03;2.87;;;;;;;;;;5089956;28;20200;-85
2022/10/16 10:58:10;;;;;;;2.10;1.30;;;;;;;;;;5096802;28;20204;-86
2022/10/16 11:00:44;;;;;;;1.83;1.73;;;;;;;;;;5091971;28;20214;-85
2022/10/16 11:03:18;;;;;;;5.13;1.33;;;;;;;;;;5081908;28;20201;-85
2022/10/16 11:05:47;;;;;;;1.17;0.80;;;;;;;;;;5087750;28;20209;-85
2022/10/16 11:08:18;;;;;;;6.03;2.13;;;;;;;;;;5090437;28;20199;-85
2022/10/16 11:10:51;;;;;;;2.77;1.10;;;;;;;;;;5090887;28;20251;-85
2022/10/16 11:13:25;;;;;;;6.37;1.97;;;;;;;;;;5086228;28;20197;-85
2022/10/16 11:15:54;;;;;;;4.73;2.37;;;;;;;;;;5101215;28;20196;-85
2022/10/16 11:18:24;;;;;;;3.17;2.07;;;;;;;;;;5090851;28;20209;-85
2022/10/16 11:20:55;;;;;;;3.10;1.40;;;;;;;;;;5102999;28;20215;-85
2022/10/16 11:23:26;;;;;;;7.27;2.43;;;;;;;;;;5088043;28;20234;-85
2022/10/16 11:25:57;;;;;;;5.27;1.63;;;;;;;;;;5103047;28;20222;-85
2022/10/16 11:28:29;;;;;;;3.80;1.57;;;;;;;;;;5106143;28;20192;-85
2022/10/16 11:31:01;;;;;;;7.03;1.70;;;;;;;;;;5087253;28;20205;-85
2022/10/16 11:33:32;;;;;;;1.53;1.03;;;;;;;;;;5084691;28;20211;-85
2022/10/16 11:36:04;;;;;;;6.77;1.70;;;;;;;;;;5090600;28;20213;-85
2022/10/16 11:38:36;;;;;;;5.30;1.50;;;;;;;;;;5084285;28;20204;-85
2022/10/16 11:41:11;;;;;;;5.07;1.97;;;;;;;;;;5090027;28;20212;-85
2022/10/16 11:43:42;;;;;;;2.00;1.33;;;;;;;;;;5114910;27;20256;-85
2022/10/16 11:46:13;;;;;;;2.93;1.30;;;;;;;;;;5102703;28;20285;-85
2022/10/16 11:48:45;;;;;;;3.00;1.33;;;;;;;;;;5095925;28;20201;-85
2022/10/16 11:51:17;;;;;;;7.73;2.20;;;;;;;;;;5086842;28;20216;-85
2022/10/16 11:53:47;;;;;;;1.83;1.20;;;;;;;;;;5093880;28;20207;-85
2022/10/16 11:56:19;;;;;;;2.63;1.07;;;;;;;;;;5096316;28;20222;-85
2022/10/16 11:58:53;;;;;;;2.57;1.63;;;;;;;;;;5090727;28;20193;-85
2022/10/16 12:01:25;;;;;;;3.30;0.90;;;;;;;;;;5089713;28;20230;-85
2022/10/16 12:04:01;;;;;;;4.27;1.53;;;;;;;;;;5106665;28;20219;-85
2022/10/16 12:06:32;;;;;;;3.33;1.33;;;;;;;;;;5089696;28;20206;-85
2022/10/16 12:09:01;;;;;;;1.17;0.87;;;;;;;;;;5086418;28;20196;-85
2022/10/16 12:11:36;;;;;;;5.93;1.53;;;;;;;;;;5091759;28;20221;-85
2022/10/16 12:14:37;;;;;;;2.80;1.60;;;;;;;;;;5105717;28;20259;-85
2022/10/16 12:17:27;;;;;;;3.30;1.50;;;;;;;;;;5044440;28;20233;-85
2022/10/16 12:19:59;;;;;;;2.43;2.00;;;;;;;;;;5021371;28;20222;-85
2022/10/16 12:22:29;;;;;;;6.20;1.17;;;;;;;;;;5074015;28;20211;-85
2022/10/16 12:24:57;;;;;;;3.03;1.10;;;;;;;;;;5084049;28;20196;-85
2022/10/16 12:27:29;;;;;;;1.57;0.90;;;;;;;;;;5093809;28;20261;-85
2022/10/16 12:29:59;;;;;;;7.17;1.53;;;;;;;;;;5085201;28;20287;-85
2022/10/16 12:32:32;;;;;;;0.90;0.70;;;;;;;;;;5092513;28;20238;-85
2022/10/16 12:35:21;;;;;;;1.80;0.80;;;;;;;;;;5075873;28;20256;-85
2022/10/16 12:37:49;;;;;;;2.53;1.53;;;;;;;;;;5095035;28;20194;-85
2022/10/16 12:40:25;;;;;;;0.97;0.87;;;;;;;;;;5094907;28;20213;-85
2022/10/16 12:42:55;;;;;;;5.83;1.97;;;;;;;;;;5106526;28;20193;-85
2022/10/16 12:45:26;;;;;;;1.97;1.27;;;;;;;;;;5090496;28;20235;-85
2022/10/16 12:47:55;;;;;;;1.20;0.97;;;;;;;;;;5095419;28;20201;-85
2022/10/16 12:50:31;;;;;;;5.63;2.07;;;;;;;;;;5095247;28;20295;-85
2022/10/16 12:53:01;;;;;;;2.47;1.37;;;;;;;;;;5095987;28;20226;-85
2022/10/16 12:55:33;;;;;;;3.93;1.33;;;;;;;;;;5082291;28;20192;-85
2022/10/16 12:58:08;;;;;;;2.73;1.00;;;;;;;;;;5083371;28;20208;-85
2022/10/16 13:00:41;;;;;;;0.50;0.50;;;;;;;;;;5100921;28;20229;-85
2022/10/16 13:03:24;;;;;;;8.57;2.50;;;;;;;;;;5112803;28;20202;-85
2022/10/16 13:05:59;;;;;;;1.60;1.50;;;;;;;;;;5095443;28;20205;-85
2022/10/16 13:08:37;;;;;;;2.20;1.17;;;;;;;;;;5082025;28;20180;-85
2022/10/16 13:11:07;;;;;;;2.23;1.10;;;;;;;;;;5095766;28;20213;-86
2022/10/16 13:13:54;;;;;;;3.50;1.93;;;;;;;;;;5082549;28;20231;-85
2022/10/16 13:16:27;;;;;;;2.37;1.43;;;;;;;;;;5092503;28;20209;-85
2022/10/16 13:19:00;;;;;;;2.23;1.10;;;;;;;;;;5086171;28;20196;-85
2022/10/16 13:21:44;;;;;;;2.83;1.30;;;;;;;;;;5095624;28;20226;-85
2022/10/16 13:24:18;;;;;;;4.33;1.80;;;;;;;;;;5095282;28;20217;-85
2022/10/16 13:26:50;;;;;;;3.93;1.00;;;;;;;;;;5104918;28;20227;-85
2022/10/16 13:29:20;;;;;;;11.40;1.27;;;;;;;;;;5075385;28;20294;-85
2022/10/16 13:31:49;;;;;;;4.00;0.83;;;;;;;;;;5085331;28;20221;-85
2022/10/16 13:34:19;;;;;;;3.20;1.30;;;;;;;;;;5081577;28;20225;-85
2022/10/16 13:36:50;;;;;;;3.53;1.50;;;;;;;;;;5095455;28;20203;-85
2022/10/16 13:39:23;;;;;;;0.90;0.73;;;;;;;;;;5090194;28;20211;-85
2022/10/16 13:42:05;;;;;;;0.83;0.83;;;;;;;;;;5088335;28;20203;-85
2022/10/16 13:44:41;;;;;;;2.17;0.87;;;;;;;;;;5083591;28;20329;-85
2022/10/16 13:47:16;;;;;;;1.00;0.50;;;;;;;;;;5095286;28;20312;-85
2022/10/16 13:49:45;;;;;;;5.70;5.30;;;;;;;;;;5095159;28;20206;-85
2022/10/16 13:52:20;;;;;;;2.37;1.00;;;;;;;;;;5095895;28;20216;-85
2022/10/16 13:54:48;;;;;;;2.33;1.00;;;;;;;;;;5091623;28;20219;-84
2022/10/16 13:57:17;;;;;;;3.60;1.00;;;;;;;;;;5091849;28;20208;-85
2022/10/16 14:00:02;;;;;;;1.63;0.83;;;;;;;;;;5080136;28;20257;-85
2022/10/16 14:02:34;;;;;;;8.73;1.93;;;;;;;;;;5106335;28;20202;-85
2022/10/16 14:05:03;;;;;;;1.87;1.23;;;;;;;;;;5103029;28;20268;-85
2022/10/16 14:07:33;;;;;;;5.83;1.17;;;;;;;;;;5098900;28;20217;-85
2022/10/16 14:10:02;;;;;;;5.27;1.10;;;;;;;;;;5084572;28;20264;-85
2022/10/16 14:12:31;;;;;;;0.93;0.87;;;;;;;;;;5097954;28;20339;-85
2022/10/16 14:15:01;;;;;;;3.13;1.33;;;;;;;;;;5097483;28;20234;-85
2022/10/16 14:17:31;;;;;;;8.10;1.93;;;;;;;;;;5116493;28;20208;-85
2022/10/16 14:20:00;;;;;;;8.37;1.10;;;;;;;;;;5084897;28;20219;-85
2022/10/16 14:22:34;;;;;;;5.27;2.07;;;;;;;;;;5097541;28;20223;-85
2022/10/16 14:25:04;;;;;;;5.30;2.43;;;;;;;;;;5096114;28;20201;-85
2022/10/16 14:27:34;;;;;;;11.53;2.17;;;;;;;;;;5093035;28;20299;-85
2022/10/16 14:30:17;;;;;;;5.30;1.57;;;;;;;;;;5116164;28;20208;-85
2022/10/16 14:32:55;;;;;;;2.10;0.70;;;;;;;;;;5097283;28;20297;-85
2022/10/16 14:35:25;;;;;;;4.27;1.80;;;;;;;;;;5084779;28;20207;-85
2022/10/16 14:37:54;;;;;;;4.00;1.17;;;;;;;;;;5078976;28;20195;-85
2022/10/16 14:40:23;;;;;;;6.00;1.97;;;;;;;;;;5109123;28;20196;-85
2022/10/16 14:42:52;;;;;;;7.37;2.50;;;;;;;;;;5085915;28;20223;-85
2022/10/16 14:45:23;;;;;;;15.43;1.43;;;;;;;;;;5097156;28;20231;-85
2022/10/16 14:47:52;;;;;;;3.50;0.93;;;;;;;;;;5097886;28;20204;-85
2022/10/16 14:50:21;;;;;;;7.73;2.90;;;;;;;;;;5097379;28;20207;-85
2022/10/16 14:52:51;;;;;;;9.90;1.90;;;;;;;;;;5106615;28;20217;-85
2022/10/16 14:55:19;;;;;;;7.10;2.77;;;;;;;;;;5099225;28;20195;-85
2022/10/16 14:57:48;;;;;;;1.57;0.83;;;;;;;;;;5115524;28;20223;-85
2022/10/16 15:00:18;;;;;;;2.20;0.90;;;;;;;;;;5110485;28;20245;-85
2022/10/16 15:02:49;;;;;;;1.40;0.97;;;;;;;;;;5106757;28;20217;-85
2022/10/16 15:05:19;;;;;;;4.97;2.20;;;;;;;;;;5097173;28;20215;-85
2022/10/16 15:07:48;;;;;;;1.47;1.40;;;;;;;;;;5090733;28;20195;-85